Location San Luis Obispo, CA, US

ob kcasanlu1 202131Z AUTO 29011G13KT CLR 23/15 A2984 RMK SLPNO 

2017.09.20 2131 UTC
Wind from the WNW (294 degrees) at 13.0 MPH (11 KT) gusting to 15.0 MPH (13 KT)
Visibility    Mile(s)
Sky Conditions  clear
Temperature 73.40 F (23 C)
Dew Point 58.69 F (15 C)
Relative Humidity 60%
Pressure   29.84 in. Hg (1010 hPa)
Rain  0.00 in.
Daily Rain  in.

Station Name  www.sloweather.com
Longitude, Latitude  -120.71, 35.26
Elevation 310
Station URL www.sloweather.com
Software Type VWS V14.00